Etusivu
METAR-TAF:

METAR-TAF

Lentoasemat :

Örnsköldsvikin lentoasema

Örnsköldsvik, Ruotsi

Leveyspiiri: 63-24N, Pituuspiiri: 018-58E, korkeus merenpinnasta: 103 m

Tämänhetkinen sää

Tämä raportti tehtiin 25 minuuttia sitten, kello 04.20 UTC
Tuuli 2 kn eri suunnista
Lämpötila 20°C
Kosteus 88%
Ilmanpaine 1003 hPa
Näkyvyys 10 km tai enemmän

METAR: ESNO 220420Z AUTO VRB02KT 9999 FEW043/// SCT170/// 20/18 Q1003

Aika: 06:45 (04:45 UTC)

Sääennuste

Tämä raportti tehtiin 18 tuntia ja 15 minuuttia sitten, kello 10.30 UTC
Ennuste voimassa 21. päivästä klo 11 UTC - 21. päivään klo 13 UTC
Tuuli 9 kn kaakosta
Näkyvyys 10 km tai enemmän
Muutamia pilviä 6000 ft:n korkeudessa, Cumulonimbus.

TAF: ESNO 211030Z 2111/2113 14009KT 9999 FEW060CB

Säähavainnot ja -ennusteet yli 4000 lentoasemalta (METAR- ja TAF-raportit).

Käytössä olevat sääasemat on merkitty karttaan keltaisilla ja punaisilla pisteillä.

Aseta hiiri pisteen päälle nähdäksesi sääaseman nimen.

Klikkaa sitten nähdäksesi säähavainnot ja -ennusteet.

Kartan vaihtaminen: klikkaa mustalla rastilla varustettuja vihreitä pisteitä, niin voit zoomata sisään; viivalla varustettua vihreää pistettä, niin voit zoomata ulos tai vihreitä nuolia, niin pääset viereisille kartoille.


METAR-TAF: